sensor_id;sensor_type;location;lat;lon;timestamp;pressure;altitude;pressure_sealevel;temperature;humidity
21185;BME280;18176;49.502;11.754;2024-03-02T00:02:56;95913.28;;;11.23;61.35
21185;BME280;18176;49.502;11.754;2024-03-02T00:07:17;95917.97;;;11.11;61.77
21185;BME280;18176;49.502;11.754;2024-03-02T00:11:37;95911.63;;;11.17;61.30
21185;BME280;18176;49.502;11.754;2024-03-02T00:15:58;95905.84;;;11.20;61.40
21185;BME280;18176;49.502;11.754;2024-03-02T00:20:23;95909.88;;;11.33;61.01
21185;BME280;18176;49.502;11.754;2024-03-02T00:24:44;95905.84;;;11.20;61.26
21185;BME280;18176;49.502;11.754;2024-03-02T00:29:05;95916.47;;;11.25;61.27
21185;BME280;18176;49.502;11.754;2024-03-02T00:33:33;95901.13;;;11.32;60.69
21185;BME280;18176;49.502;11.754;2024-03-02T00:37:57;95912.22;;;11.24;61.18
21185;BME280;18176;49.502;11.754;2024-03-02T00:42:18;95913.84;;;11.30;61.17
21185;BME280;18176;49.502;11.754;2024-03-02T00:46:41;95907.13;;;11.17;62.10
21185;BME280;18176;49.502;11.754;2024-03-02T00:51:02;95915.19;;;11.33;61.63
21185;BME280;18176;49.502;11.754;2024-03-02T00:55:26;95918.38;;;11.35;61.92
21185;BME280;18176;49.502;11.754;2024-03-02T00:59:47;95921.78;;;11.30;61.87
21185;BME280;18176;49.502;11.754;2024-03-02T01:04:07;95918.13;;;11.41;61.86
21185;BME280;18176;49.502;11.754;2024-03-02T01:08:28;95905.09;;;11.29;62.01
21185;BME280;18176;49.502;11.754;2024-03-02T01:12:51;95923.38;;;11.31;61.95
21185;BME280;18176;49.502;11.754;2024-03-02T01:17:12;95915.72;;;11.40;61.70
21185;BME280;18176;49.502;11.754;2024-03-02T01:21:32;95923.69;;;11.45;61.66
21185;BME280;18176;49.502;11.754;2024-03-02T01:25:53;95919.69;;;11.32;61.69
21185;BME280;18176;49.502;11.754;2024-03-02T01:30:16;95911.63;;;11.17;63.69
21185;BME280;18176;49.502;11.754;2024-03-02T01:34:37;95912.22;;;11.24;63.99
21185;BME280;18176;49.502;11.754;2024-03-02T01:38:57;95878.84;;;11.33;63.67
21185;BME280;18176;49.502;11.754;2024-03-02T01:43:18;95893.16;;;11.32;64.08
21185;BME280;18176;49.502;11.754;2024-03-02T01:47:42;95913.84;;;11.35;64.39
21185;BME280;18176;49.502;11.754;2024-03-02T01:52:03;95914.38;;;11.32;64.54
21185;BME280;18176;49.502;11.754;2024-03-02T01:56:24;95905.88;;;11.35;64.64
21185;BME280;18176;49.502;11.754;2024-03-02T02:00:44;95923.69;;;11.35;65.08
21185;BME280;18176;49.502;11.754;2024-03-02T02:05:09;95910.16;;;11.36;65.07
21185;BME280;18176;49.502;11.754;2024-03-02T02:09:30;95914.41;;;11.42;64.82
21185;BME280;18176;49.502;11.754;2024-03-02T02:13:50;95891.06;;;11.39;64.70
21185;BME280;18176;49.502;11.754;2024-03-02T02:18:13;95895.69;;;11.69;63.60
21185;BME280;18176;49.502;11.754;2024-03-02T02:22:36;95901.34;;;11.92;63.02
21185;BME280;18176;49.502;11.754;2024-03-02T02:26:57;95909.59;;;12.06;63.15
21185;BME280;18176;49.502;11.754;2024-03-02T02:31:18;95910.91;;;12.04;63.22
21185;BME280;18176;49.502;11.754;2024-03-02T02:35:38;95905.59;;;12.14;62.56
21185;BME280;18176;49.502;11.754;2024-03-02T02:40:03;95905.34;;;12.10;62.61
21185;BME280;18176;49.502;11.754;2024-03-02T02:44:24;95898.69;;;12.03;62.98
21185;BME280;18176;49.502;11.754;2024-03-02T02:48:44;95899.19;;;11.99;63.22
21185;BME280;18176;49.502;11.754;2024-03-02T02:53:06;95881.94;;;11.92;63.10
21185;BME280;18176;49.502;11.754;2024-03-02T02:57:30;95898.69;;;12.08;62.87
21185;BME280;18176;49.502;11.754;2024-03-02T03:01:53;95898.16;;;12.06;62.70
21185;BME280;18176;49.502;11.754;2024-03-02T03:06:14;95900.28;;;12.04;62.94
21185;BME280;18176;49.502;11.754;2024-03-02T03:10:34;95907.72;;;12.12;62.87
21185;BME280;18176;49.502;11.754;2024-03-02T03:14:58;95910.91;;;12.14;62.67
21185;BME280;18176;49.502;11.754;2024-03-02T03:19:18;95896.31;;;12.06;62.81
21185;BME280;18176;49.502;11.754;2024-03-02T03:23:39;95898.19;;;12.11;62.36
21185;BME280;18176;49.502;11.754;2024-03-02T03:28:00;95913.03;;;12.32;62.00
21185;BME280;18176;49.502;11.754;2024-03-02T03:32:25;95913.03;;;12.62;61.17
21185;BME280;18176;49.502;11.754;2024-03-02T03:36:46;95908.81;;;12.56;61.55
21185;BME280;18176;49.502;11.754;2024-03-02T03:41:06;95885.44;;;12.33;61.39
21185;BME280;18176;49.502;11.754;2024-03-02T03:45:27;95906.69;;;12.43;61.46
21185;BME280;18176;49.502;11.754;2024-03-02T03:49:50;95917.56;;;12.56;61.47
21185;BME280;18176;49.502;11.754;2024-03-02T03:54:11;95914.09;;;12.46;61.81
21185;BME280;18176;49.502;11.754;2024-03-02T03:58:32;95913.59;;;12.49;61.64
21185;BME280;18176;49.502;11.754;2024-03-02T04:02:53;95905.63;;;12.54;61.47
21185;BME280;18176;49.502;11.754;2024-03-02T04:07:17;95919.44;;;12.41;61.85
21185;BME280;18176;49.502;11.754;2024-03-02T04:11:38;95914.09;;;12.26;62.59
21185;BME280;18176;49.502;11.754;2024-03-02T04:15:58;95922.06;;;12.21;63.04
21185;BME280;18176;49.502;11.754;2024-03-02T04:20:19;95922.09;;;12.31;62.64
21185;BME280;18176;49.502;11.754;2024-03-02T04:24:43;95908.00;;;12.55;61.27
21185;BME280;18176;49.502;11.754;2024-03-02T04:29:03;95930.03;;;12.81;61.17
21185;BME280;18176;49.502;11.754;2024-03-02T04:33:24;95911.47;;;12.61;61.12
21185;BME280;18176;49.502;11.754;2024-03-02T04:37:44;95935.91;;;12.43;62.33
21185;BME280;18176;49.502;11.754;2024-03-02T04:42:08;95942.81;;;12.44;62.61
21185;BME280;18176;49.502;11.754;2024-03-02T04:46:28;95949.19;;;12.58;62.32
21185;BME280;18176;49.502;11.754;2024-03-02T04:50:49;95950.00;;;12.38;62.87
21185;BME280;18176;49.502;11.754;2024-03-02T04:55:09;95932.16;;;12.24;63.04
21185;BME280;18176;49.502;11.754;2024-03-02T04:59:45;95936.41;;;12.35;62.49
21185;BME280;18176;49.502;11.754;2024-03-02T05:04:06;95956.09;;;12.49;62.74
21185;BME280;18176;49.502;11.754;2024-03-02T05:08:32;95939.09;;;12.45;62.50
21185;BME280;18176;49.502;11.754;2024-03-02T05:12:53;95958.22;;;12.47;62.83
21185;BME280;18176;49.502;11.754;2024-03-02T05:17:20;95961.94;;;12.46;62.76
21185;BME280;18176;49.502;11.754;2024-03-02T05:21:41;95941.22;;;12.38;62.78
21185;BME280;18176;49.502;11.754;2024-03-02T05:26:02;95929.53;;;12.29;62.96
21185;BME280;18176;49.502;11.754;2024-03-02T05:30:23;95935.38;;;12.36;62.96
21185;BME280;18176;49.502;11.754;2024-03-02T05:34:47;95917.28;;;12.08;63.47
21185;BME280;18176;49.502;11.754;2024-03-02T05:39:08;95950.78;;;12.29;63.44
21185;BME280;18176;49.502;11.754;2024-03-02T05:43:29;95954.97;;;12.05;64.19
21185;BME280;18176;49.502;11.754;2024-03-02T05:47:50;95955.22;;;11.98;64.57
21185;BME280;18176;49.502;11.754;2024-03-02T05:52:13;95962.38;;;11.92;65.10
21185;BME280;18176;49.502;11.754;2024-03-02T05:56:35;95952.34;;;12.15;64.31
21185;BME280;18176;49.502;11.754;2024-03-02T06:00:55;95947.59;;;12.27;63.85
21185;BME280;18176;49.502;11.754;2024-03-02T06:05:17;95949.19;;;12.43;63.41
21185;BME280;18176;49.502;11.754;2024-03-02T06:09:41;95946.00;;;12.31;63.88
21185;BME280;18176;49.502;11.754;2024-03-02T06:14:03;95951.03;;;12.32;63.84
21185;BME280;18176;49.502;11.754;2024-03-02T06:18:24;95957.91;;;12.13;64.49
21185;BME280;18176;49.502;11.754;2024-03-02T06:22:45;95965.66;;;12.25;64.36
21185;BME280;18176;49.502;11.754;2024-03-02T06:27:08;95963.25;;;12.33;63.69
21185;BME280;18176;49.502;11.754;2024-03-02T06:31:29;95965.13;;;12.48;63.40
21185;BME280;18176;49.502;11.754;2024-03-02T06:35:50;95965.13;;;12.43;63.34
21185;BME280;18176;49.502;11.754;2024-03-02T06:40:11;95964.59;;;12.56;63.31
21185;BME280;18176;49.502;11.754;2024-03-02T06:44:34;95956.09;;;12.34;63.64
21185;BME280;18176;49.502;11.754;2024-03-02T06:48:55;95965.13;;;12.43;63.69
21185;BME280;18176;49.502;11.754;2024-03-02T06:53:16;95968.88;;;12.57;63.25
21185;BME280;18176;49.502;11.754;2024-03-02T06:57:37;95966.19;;;12.47;63.61
21185;BME280;18176;49.502;11.754;2024-03-02T07:02:01;95964.59;;;12.51;63.82
21185;BME280;18176;49.502;11.754;2024-03-02T07:06:22;95964.88;;;12.54;63.90
21185;BME280;18176;49.502;11.754;2024-03-02T07:10:43;95964.59;;;12.71;63.54
21185;BME280;18176;49.502;11.754;2024-03-02T07:15:06;95968.88;;;13.07;62.94
21185;BME280;18176;49.502;11.754;2024-03-02T07:19:57;95965.56;;;13.46;61.70
21185;BME280;18176;49.502;11.754;2024-03-02T07:24:18;95974.06;;;13.48;61.70
21185;BME280;18176;49.502;11.754;2024-03-02T07:28:39;95972.44;;;13.62;61.57
21185;BME280;18176;49.502;11.754;2024-03-02T07:33:00;95970.66;;;13.42;61.52
21185;BME280;18176;49.502;11.754;2024-03-02T07:37:23;95972.75;;;13.50;62.27
21185;BME280;18176;49.502;11.754;2024-03-02T07:41:45;95989.00;;;13.49;62.42
21185;BME280;18176;49.502;11.754;2024-03-02T07:46:06;95987.38;;;13.43;61.89
21185;BME280;18176;49.502;11.754;2024-03-02T07:50:27;95995.94;;;13.04;63.31
21185;BME280;18176;49.502;11.754;2024-03-02T07:54:50;95992.25;;;13.25;62.79
21185;BME280;18176;49.502;11.754;2024-03-02T07:59:12;96000.69;;;13.48;62.27
21185;BME280;18176;49.502;11.754;2024-03-02T08:03:32;95998.09;;;13.22;62.74
21185;BME280;18176;49.502;11.754;2024-03-02T08:07:53;96007.56;;;13.59;62.13
21185;BME280;18176;49.502;11.754;2024-03-02T08:12:17;96008.13;;;13.51;61.90
21185;BME280;18176;49.502;11.754;2024-03-02T08:16:41;95996.22;;;13.28;62.34
21185;BME280;18176;49.502;11.754;2024-03-02T08:21:03;96012.94;;;13.49;62.42
21185;BME280;18176;49.502;11.754;2024-03-02T08:25:25;96009.28;;;13.14;63.11
21185;BME280;18176;49.502;11.754;2024-03-02T08:29:48;96023.59;;;13.28;63.08
21185;BME280;18176;49.502;11.754;2024-03-02T08:34:09;96022.47;;;13.65;62.14
21185;BME280;18176;49.502;11.754;2024-03-02T08:38:30;96036.84;;;13.69;61.67
21185;BME280;18176;49.502;11.754;2024-03-02T08:42:51;96036.25;;;13.82;61.28
21185;BME280;18176;49.502;11.754;2024-03-02T08:47:14;96042.28;;;14.07;60.87
21185;BME280;18176;49.502;11.754;2024-03-02T08:51:35;96042.25;;;14.18;60.46
21185;BME280;18176;49.502;11.754;2024-03-02T08:55:56;96030.16;;;13.76;60.49
21185;BME280;18176;49.502;11.754;2024-03-02T09:00:20;96044.66;;;14.09;61.07
21185;BME280;18176;49.502;11.754;2024-03-02T09:04:43;96041.31;;;14.47;59.72
21185;BME280;18176;49.502;11.754;2024-03-02T09:09:04;96036.06;;;14.27;58.98
21185;BME280;18176;49.502;11.754;2024-03-02T09:13:26;96041.59;;;13.77;61.05
21185;BME280;18176;49.502;11.754;2024-03-02T09:17:47;96047.38;;;14.04;60.13
21185;BME280;18176;49.502;11.754;2024-03-02T09:22:10;96043.78;;;13.60;61.08
21185;BME280;18176;49.502;11.754;2024-03-02T09:26:31;96041.13;;;13.45;62.06
21185;BME280;18176;49.502;11.754;2024-03-02T09:30:53;96044.00;;;13.68;61.60
21185;BME280;18176;49.502;11.754;2024-03-02T09:35:17;96044.50;;;13.85;60.62
21185;BME280;18176;49.502;11.754;2024-03-02T09:39:40;96043.44;;;13.81;60.81
21185;BME280;18176;49.502;11.754;2024-03-02T09:44:04;96051.53;;;13.36;60.30
21185;BME280;18176;49.502;11.754;2024-03-02T09:48:25;96003.34;;;13.43;60.27
21185;BME280;18176;49.502;11.754;2024-03-02T09:52:48;96058.41;;;13.67;60.45
21185;BME280;18176;49.502;11.754;2024-03-02T09:57:12;96058.56;;;14.01;60.19
21185;BME280;18176;49.502;11.754;2024-03-02T10:01:33;96059.59;;;14.05;59.92
21185;BME280;18176;49.502;11.754;2024-03-02T10:05:53;96068.81;;;13.54;61.21
21185;BME280;18176;49.502;11.754;2024-03-02T10:10:16;96030.47;;;13.60;60.63
21185;BME280;18176;49.502;11.754;2024-03-02T10:14:40;96051.91;;;14.03;59.78
21185;BME280;18176;49.502;11.754;2024-03-02T10:19:16;96041.47;;;14.12;59.06
21185;BME280;18176;49.502;11.754;2024-03-02T10:23:37;96042.09;;;13.84;59.17
21185;BME280;18176;49.502;11.754;2024-03-02T10:27:58;96055.19;;;13.75;59.77
21185;BME280;18176;49.502;11.754;2024-03-02T10:32:22;96041.06;;;13.80;60.03
21185;BME280;18176;49.502;11.754;2024-03-02T10:36:44;96036.59;;;14.34;58.75
21185;BME280;18176;49.502;11.754;2024-03-02T10:41:05;96043.19;;;14.42;58.71
21185;BME280;18176;49.502;11.754;2024-03-02T10:45:26;96033.88;;;14.44;58.04
21185;BME280;18176;49.502;11.754;2024-03-02T10:49:52;96037.13;;;14.26;59.15
21185;BME280;18176;49.502;11.754;2024-03-02T10:54:15;96032.41;;;14.62;57.72
21185;BME280;18176;49.502;11.754;2024-03-02T10:58:37;96032.81;;;14.45;57.30
21185;BME280;18176;49.502;11.754;2024-03-02T11:03:05;96038.44;;;14.83;57.16
21185;BME280;18176;49.502;11.754;2024-03-02T11:07:30;96008.88;;;14.74;56.81
21185;BME280;18176;49.502;11.754;2024-03-02T11:12:02;96026.47;;;15.09;54.92
21185;BME280;18176;49.502;11.754;2024-03-02T11:16:32;96011.25;;;15.09;55.21
21185;BME280;18176;49.502;11.754;2024-03-02T11:20:55;96008.22;;;15.21;53.32
21185;BME280;18176;49.502;11.754;2024-03-02T11:25:28;96000.19;;;15.78;52.43
21185;BME280;18176;49.502;11.754;2024-03-02T11:29:52;95994.38;;;15.71;53.34
21185;BME280;18176;49.502;11.754;2024-03-02T11:34:28;95960.03;;;15.36;53.64
21185;BME280;18176;49.502;11.754;2024-03-02T11:38:50;95989.09;;;15.66;53.60
21185;BME280;18176;49.502;11.754;2024-03-02T11:43:14;95970.53;;;15.56;53.69
21185;BME280;18176;49.502;11.754;2024-03-02T11:47:36;95935.03;;;16.16;52.13
21185;BME280;18176;49.502;11.754;2024-03-02T11:52:01;95964.94;;;16.56;51.21
21185;BME280;18176;49.502;11.754;2024-03-02T11:56:25;95954.31;;;16.69;49.90
21185;BME280;18176;49.502;11.754;2024-03-02T12:00:50;95943.75;;;15.85;51.59
21185;BME280;18176;49.502;11.754;2024-03-02T12:05:13;95907.25;;;15.75;51.93
21185;BME280;18176;49.502;11.754;2024-03-02T12:09:35;95950.69;;;16.42;51.86
21185;BME280;18176;49.502;11.754;2024-03-02T12:13:56;95946.53;;;16.54;50.91
21185;BME280;18176;49.502;11.754;2024-03-02T12:18:19;95949.41;;;16.21;51.14
21185;BME280;18176;49.502;11.754;2024-03-02T12:22:41;95942.09;;;16.26;51.33
21185;BME280;18176;49.502;11.754;2024-03-02T12:27:02;95946.00;;;16.71;50.83
21185;BME280;18176;49.502;11.754;2024-03-02T12:31:24;95935.22;;;17.08;49.88
21185;BME280;18176;49.502;11.754;2024-03-02T12:35:49;95942.66;;;16.79;49.79
21185;BME280;18176;49.502;11.754;2024-03-02T12:40:10;95934.47;;;15.77;52.47
21185;BME280;18176;49.502;11.754;2024-03-02T12:44:31;95934.84;;;15.71;53.16
21185;BME280;18176;49.502;11.754;2024-03-02T12:48:52;95920.56;;;15.80;53.03
21185;BME280;18176;49.502;11.754;2024-03-02T12:53:19;95928.78;;;15.65;53.10
21185;BME280;18176;49.502;11.754;2024-03-02T12:57:42;95919.81;;;15.56;53.22
21185;BME280;18176;49.502;11.754;2024-03-02T13:02:06;95904.34;;;15.95;52.95
21185;BME280;18176;49.502;11.754;2024-03-02T13:06:28;95901.94;;;16.12;52.19
21185;BME280;18176;49.502;11.754;2024-03-02T13:10:51;95896.28;;;16.33;52.18
21185;BME280;18176;49.502;11.754;2024-03-02T13:15:12;95909.31;;;16.21;51.29
21185;BME280;18176;49.502;11.754;2024-03-02T13:19:35;95902.66;;;16.37;51.42
21185;BME280;18176;49.502;11.754;2024-03-02T13:23:55;95874.84;;;16.38;50.54
21185;BME280;18176;49.502;11.754;2024-03-02T13:28:19;95896.16;;;16.61;51.19
21185;BME280;18176;49.502;11.754;2024-03-02T13:32:40;95897.00;;;16.89;50.01
21185;BME280;18176;49.502;11.754;2024-03-02T13:37:00;95887.25;;;16.47;51.16
21185;BME280;18176;49.502;11.754;2024-03-02T13:41:23;95859.72;;;16.47;50.46
21185;BME280;18176;49.502;11.754;2024-03-02T13:45:46;95876.03;;;17.10;49.74
21185;BME280;18176;49.502;11.754;2024-03-02T13:50:08;95886.44;;;17.11;50.05
21185;BME280;18176;49.502;11.754;2024-03-02T13:54:29;95886.47;;;17.66;49.00
21185;BME280;18176;49.502;11.754;2024-03-02T13:58:50;95883.56;;;17.21;48.08
21185;BME280;18176;49.502;11.754;2024-03-02T14:03:13;95863.22;;;17.07;48.51
21185;BME280;18176;49.502;11.754;2024-03-02T14:07:34;95875.72;;;17.11;49.13
21185;BME280;18176;49.502;11.754;2024-03-02T14:11:56;95873.53;;;17.81;48.21
21185;BME280;18176;49.502;11.754;2024-03-02T14:16:18;95875.09;;;17.96;47.06
21185;BME280;18176;49.502;11.754;2024-03-02T14:20:41;95868.28;;;18.12;46.86
21185;BME280;18176;49.502;11.754;2024-03-02T14:25:04;95861.44;;;17.84;46.99
21185;BME280;18176;49.502;11.754;2024-03-02T14:29:25;95854.22;;;18.29;46.66
21185;BME280;18176;49.502;11.754;2024-03-02T14:33:45;95842.09;;;17.46;47.95
21185;BME280;18176;49.502;11.754;2024-03-02T14:38:09;95835.03;;;18.35;46.33
21185;BME280;18176;49.502;11.754;2024-03-02T14:42:30;95847.84;;;18.16;46.98
21185;BME280;18176;49.502;11.754;2024-03-02T14:46:50;95846.00;;;18.25;46.53
21185;BME280;18176;49.502;11.754;2024-03-02T14:51:11;95853.72;;;18.04;47.91
21185;BME280;18176;49.502;11.754;2024-03-02T14:55:35;95844.69;;;18.00;47.31
21185;BME280;18176;49.502;11.754;2024-03-02T14:59:55;95838.56;;;18.00;47.53
21185;BME280;18176;49.502;11.754;2024-03-02T15:04:16;95837.66;;;19.02;46.04
21185;BME280;18176;49.502;11.754;2024-03-02T15:08:38;95832.81;;;19.12;45.27
21185;BME280;18176;49.502;11.754;2024-03-02T15:13:03;95822.47;;;18.44;46.32
21185;BME280;18176;49.502;11.754;2024-03-02T15:17:24;95815.78;;;18.33;46.64
21185;BME280;18176;49.502;11.754;2024-03-02T15:21:44;95817.34;;;18.78;45.71
21185;BME280;18176;49.502;11.754;2024-03-02T15:26:05;95800.34;;;18.91;45.29
21185;BME280;18176;49.502;11.754;2024-03-02T15:30:30;95797.69;;;19.48;44.98
21185;BME280;18176;49.502;11.754;2024-03-02T15:34:50;95814.66;;;19.66;44.33
21185;BME280;18176;49.502;11.754;2024-03-02T15:39:11;95801.41;;;19.86;43.25
21185;BME280;18176;49.502;11.754;2024-03-02T15:43:32;95797.44;;;20.26;42.49
21185;BME280;18176;49.502;11.754;2024-03-02T15:47:56;95796.19;;;20.33;42.89
21185;BME280;18176;49.502;11.754;2024-03-02T15:52:17;95796.16;;;21.05;41.86
21185;BME280;18176;49.502;11.754;2024-03-02T15:56:39;95781.94;;;20.87;40.72
21185;BME280;18176;49.502;11.754;2024-03-02T16:01:00;95780.38;;;20.22;41.98
21185;BME280;18176;49.502;11.754;2024-03-02T16:05:24;95757.84;;;19.33;43.09
21185;BME280;18176;49.502;11.754;2024-03-02T16:09:44;95790.22;;;18.88;44.63
21185;BME280;18176;49.502;11.754;2024-03-02T16:14:05;95786.22;;;18.47;45.86
21185;BME280;18176;49.502;11.754;2024-03-02T16:18:25;95794.38;;;18.19;46.35
21185;BME280;18176;49.502;11.754;2024-03-02T16:22:49;95792.63;;;18.15;46.55
21185;BME280;18176;49.502;11.754;2024-03-02T16:27:09;95770.06;;;17.94;47.00
21185;BME280;18176;49.502;11.754;2024-03-02T16:31:30;95787.16;;;17.98;47.10
21185;BME280;18176;49.502;11.754;2024-03-02T16:35:52;95795.09;;;17.89;47.43
21185;BME280;18176;49.502;11.754;2024-03-02T16:40:15;95785.53;;;17.75;47.80
21185;BME280;18176;49.502;11.754;2024-03-02T16:44:36;95787.88;;;17.40;48.44
21185;BME280;18176;49.502;11.754;2024-03-02T16:48:57;95778.56;;;16.97;49.40
21185;BME280;18176;49.502;11.754;2024-03-02T16:53:18;95755.03;;;16.40;50.02
21185;BME280;18176;49.502;11.754;2024-03-02T16:57:41;95787.97;;;16.22;50.82
21185;BME280;18176;49.502;11.754;2024-03-02T17:02:02;95787.59;;;15.77;51.94
21185;BME280;18176;49.502;11.754;2024-03-02T17:06:23;95797.00;;;15.56;52.59
21185;BME280;18176;49.502;11.754;2024-03-02T17:10:44;95797.97;;;15.18;53.73
21185;BME280;18176;49.502;11.754;2024-03-02T17:15:09;95799.91;;;14.94;53.70
21185;BME280;18176;49.502;11.754;2024-03-02T17:19:30;95805.16;;;14.75;54.65
21185;BME280;18176;49.502;11.754;2024-03-02T17:23:50;95791.13;;;14.41;55.28
21185;BME280;18176;49.502;11.754;2024-03-02T17:28:22;95809.88;;;14.26;56.07
21185;BME280;18176;49.502;11.754;2024-03-02T17:32:49;95805.53;;;14.01;56.67
21185;BME280;18176;49.502;11.754;2024-03-02T17:37:10;95782.91;;;13.65;57.33
21185;BME280;18176;49.502;11.754;2024-03-02T17:41:31;95810.19;;;13.85;58.05
21185;BME280;18176;49.502;11.754;2024-03-02T17:45:51;95810.91;;;13.96;58.20
21185;BME280;18176;49.502;11.754;2024-03-02T17:50:15;95808.84;;;13.88;57.96
21185;BME280;18176;49.502;11.754;2024-03-02T17:54:35;95821.38;;;13.82;57.87
21185;BME280;18176;49.502;11.754;2024-03-02T17:58:56;95803.63;;;13.73;57.62
21185;BME280;18176;49.502;11.754;2024-03-02T18:03:17;95805.56;;;13.62;57.15
21185;BME280;18176;49.502;11.754;2024-03-02T18:07:41;95799.31;;;13.33;58.06
21185;BME280;18176;49.502;11.754;2024-03-02T18:12:02;95804.44;;;13.24;58.13
21185;BME280;18176;49.502;11.754;2024-03-02T18:16:24;95754.59;;;12.86;58.61
21185;BME280;18176;49.502;11.754;2024-03-02T18:20:45;95793.88;;;12.99;58.84
21185;BME280;18176;49.502;11.754;2024-03-02T18:25:10;95780.13;;;12.82;58.93
21185;BME280;18176;49.502;11.754;2024-03-02T18:29:31;95794.97;;;12.88;59.23
21185;BME280;18176;49.502;11.754;2024-03-02T18:33:51;95773.22;;;12.81;58.93
21185;BME280;18176;49.502;11.754;2024-03-02T18:38:12;95763.69;;;12.65;59.58
21185;BME280;18176;49.502;11.754;2024-03-02T18:42:36;95755.44;;;12.72;59.03
21185;BME280;18176;49.502;11.754;2024-03-02T18:46:57;95770.28;;;12.83;58.79
21185;BME280;18176;49.502;11.754;2024-03-02T18:51:21;95755.41;;;12.82;58.48
21185;BME280;18176;49.502;11.754;2024-03-02T18:55:43;95760.13;;;12.90;58.34
21185;BME280;18176;49.502;11.754;2024-03-02T19:00:08;95765.25;;;12.81;58.79
21185;BME280;18176;49.502;11.754;2024-03-02T19:04:31;95767.38;;;12.79;58.76
21185;BME280;18176;49.502;11.754;2024-03-02T19:08:52;95750.41;;;12.65;58.25
21185;BME280;18176;49.502;11.754;2024-03-02T19:13:12;95758.88;;;12.77;59.07
21185;BME280;18176;49.502;11.754;2024-03-02T19:17:36;95748.78;;;12.69;58.97
21185;BME280;18176;49.502;11.754;2024-03-02T19:21:56;95755.22;;;12.63;58.82
21185;BME280;18176;49.502;11.754;2024-03-02T19:26:27;95754.97;;;12.54;59.23
21185;BME280;18176;49.502;11.754;2024-03-02T19:30:48;95771.16;;;12.48;60.39
21185;BME280;18176;49.502;11.754;2024-03-02T19:35:12;95763.72;;;12.55;59.91
21185;BME280;18176;49.502;11.754;2024-03-02T19:39:32;95740.13;;;12.38;59.17
21185;BME280;18176;49.502;11.754;2024-03-02T19:43:57;95766.41;;;12.45;59.87
21185;BME280;18176;49.502;11.754;2024-03-02T19:48:21;95756.34;;;12.32;59.37
21185;BME280;18176;49.502;11.754;2024-03-02T19:52:44;95746.78;;;12.26;59.52
21185;BME280;18176;49.502;11.754;2024-03-02T19:57:05;95762.72;;;12.21;59.36
21185;BME280;18176;49.502;11.754;2024-03-02T20:01:25;95711.31;;;11.76;59.83
21185;BME280;18176;49.502;11.754;2024-03-02T20:05:46;95747.09;;;12.04;61.11
21185;BME280;18176;49.502;11.754;2024-03-02T20:10:10;95734.63;;;11.99;60.45
21185;BME280;18176;49.502;11.754;2024-03-02T20:14:33;95743.13;;;12.02;61.22
21185;BME280;18176;49.502;11.754;2024-03-02T20:18:53;95733.56;;;12.01;60.46
21185;BME280;18176;49.502;11.754;2024-03-02T20:23:14;95747.34;;;11.97;59.68
21185;BME280;18176;49.502;11.754;2024-03-02T20:27:37;95746.31;;;11.83;59.95
21185;BME280;18176;49.502;11.754;2024-03-02T20:31:59;95729.31;;;11.64;60.17
21185;BME280;18176;49.502;11.754;2024-03-02T20:36:20;95728.75;;;11.52;60.39
21185;BME280;18176;49.502;11.754;2024-03-02T20:40:41;95724.75;;;11.40;60.16
21185;BME280;18176;49.502;11.754;2024-03-02T20:45:06;95734.34;;;11.46;60.38
21185;BME280;18176;49.502;11.754;2024-03-02T20:49:27;95708.81;;;10.99;60.81
21185;BME280;18176;49.502;11.754;2024-03-02T20:53:48;95726.78;;;10.87;61.64
21185;BME280;18176;49.502;11.754;2024-03-02T20:58:09;95700.78;;;10.69;61.52
21185;BME280;18176;49.502;11.754;2024-03-02T21:02:34;95728.34;;;10.68;61.61
21185;BME280;18176;49.502;11.754;2024-03-02T21:06:55;95715.31;;;10.67;61.32
21185;BME280;18176;49.502;11.754;2024-03-02T21:11:16;95713.19;;;10.58;61.13
21185;BME280;18176;49.502;11.754;2024-03-02T21:15:39;95705.13;;;10.33;61.73
21185;BME280;18176;49.502;11.754;2024-03-02T21:20:03;95684.91;;;10.12;62.13
21185;BME280;18176;49.502;11.754;2024-03-02T21:24:26;95712.03;;;10.39;61.90
21185;BME280;18176;49.502;11.754;2024-03-02T21:28:47;95720.53;;;10.46;61.11
21185;BME280;18176;49.502;11.754;2024-03-02T21:33:08;95705.63;;;10.25;61.27
21185;BME280;18176;49.502;11.754;2024-03-02T21:37:31;95675.84;;;10.03;61.58
21185;BME280;18176;49.502;11.754;2024-03-02T21:41:52;95710.31;;;10.13;62.08
21185;BME280;18176;49.502;11.754;2024-03-02T21:46:13;95684.84;;;10.07;60.75
21185;BME280;18176;49.502;11.754;2024-03-02T21:50:34;95703.72;;;10.16;60.19
21185;BME280;18176;49.502;11.754;2024-03-02T21:54:57;95684.84;;;10.07;60.26
21185;BME280;18176;49.502;11.754;2024-03-02T21:59:18;95675.22;;;9.91;60.87
21185;BME280;18176;49.502;11.754;2024-03-02T22:03:38;95699.06;;;9.96;61.61
21185;BME280;18176;49.502;11.754;2024-03-02T22:08:04;95702.03;;;10.05;61.17
21185;BME280;18176;49.502;11.754;2024-03-02T22:12:27;95706.91;;;9.81;61.13
21185;BME280;18176;49.502;11.754;2024-03-02T22:16:48;95702.06;;;9.68;62.03
21185;BME280;18176;49.502;11.754;2024-03-02T22:21:08;95669.56;;;9.72;61.18
21185;BME280;18176;49.502;11.754;2024-03-02T22:25:29;95675.47;;;9.84;61.67
21185;BME280;18176;49.502;11.754;2024-03-02T22:29:52;95676.25;;;9.85;62.32
21185;BME280;18176;49.502;11.754;2024-03-02T22:34:13;95667.59;;;10.00;62.76
21185;BME280;18176;49.502;11.754;2024-03-02T22:38:34;95670.00;;;10.06;62.38
21185;BME280;18176;49.502;11.754;2024-03-02T22:42:54;95667.78;;;9.83;61.60
21185;BME280;18176;49.502;11.754;2024-03-02T22:47:19;95664.75;;;9.69;61.69
21185;BME280;18176;49.502;11.754;2024-03-02T22:51:39;95661.34;;;9.69;61.59